createdAt,value
2023-06-10T00:03:48.530Z,49.63
2023-06-10T00:08:52.428Z,49.74
2023-06-10T00:13:55.376Z,49.55
2023-06-10T00:19:02.311Z,49.67
2023-06-10T00:24:07.601Z,49.66
2023-06-10T00:29:10.593Z,49.67
2023-06-10T00:34:13.649Z,49.62
2023-06-10T00:39:17.780Z,49.60
2023-06-10T00:44:20.961Z,49.72
2023-06-10T00:49:25.087Z,49.70
2023-06-10T00:54:28.442Z,49.71
2023-06-10T00:59:32.326Z,49.71
2023-06-10T01:04:38.722Z,49.75
2023-06-10T01:10:08.358Z,49.73
2023-06-10T01:15:27.499Z,49.74
2023-06-10T01:20:33.480Z,49.71
2023-06-10T01:25:59.253Z,49.71
2023-06-10T01:31:35.213Z,49.67
2023-06-10T01:36:43.692Z,49.67
2023-06-10T01:41:48.901Z,49.67
2023-06-10T01:46:53.863Z,49.63
2023-06-10T01:51:56.724Z,49.61
2023-06-10T01:56:59.476Z,49.56
2023-06-10T02:02:03.458Z,49.54
2023-06-10T02:07:09.642Z,49.56
2023-06-10T02:12:12.790Z,49.54
2023-06-10T02:17:15.826Z,49.52
2023-06-10T02:22:20.508Z,49.51
2023-06-10T02:27:25.739Z,49.60
2023-06-10T02:32:29.413Z,49.56
2023-06-10T02:37:32.290Z,49.65
2023-06-10T02:42:36.264Z,49.71
2023-06-10T02:47:44.093Z,49.51
2023-06-10T02:52:49.022Z,48.77
2023-06-10T02:57:52.101Z,48.13
2023-06-10T03:02:58.707Z,48.03
2023-06-10T03:08:01.823Z,47.72
2023-06-10T03:13:06.964Z,47.50
2023-06-10T03:18:09.673Z,46.96
2023-06-10T03:23:12.732Z,46.06
2023-06-10T03:28:15.915Z,45.19
2023-06-10T03:33:23.239Z,44.88
2023-06-10T03:38:25.989Z,44.42
2023-06-10T03:43:28.825Z,43.75
2023-06-10T03:48:32.182Z,42.56
2023-06-10T03:53:38.160Z,41.06
2023-06-10T03:58:45.930Z,40.63
2023-06-10T04:03:52.285Z,40.15
2023-06-10T04:08:55.246Z,39.68
2023-06-10T04:13:57.975Z,38.92
2023-06-10T04:19:01.859Z,38.21
2023-06-10T04:24:05.418Z,37.66
2023-06-10T04:29:18.085Z,37.24
2023-06-10T04:34:20.753Z,35.92
2023-06-10T04:39:23.698Z,35.58
2023-06-10T04:44:26.435Z,34.52
2023-06-10T04:49:31.126Z,34.53
2023-06-10T04:54:33.906Z,33.32
2023-06-10T04:59:38.665Z,33.24
2023-06-10T05:04:44.050Z,32.83
2023-06-10T05:09:50.717Z,32.17
2023-06-10T05:14:53.479Z,31.77
2023-06-10T05:19:57.237Z,31.49
2023-06-10T05:24:59.806Z,30.98
2023-06-10T05:30:05.679Z,30.74
2023-06-10T05:35:08.685Z,30.37
2023-06-10T05:40:12.705Z,30.25
2023-06-10T05:45:15.600Z,29.85
2023-06-10T05:50:18.569Z,29.63
2023-06-10T05:55:22.575Z,29.65
2023-06-10T06:00:25.379Z,29.20
2023-06-10T06:05:36.007Z,29.31
2023-06-10T06:10:39.129Z,29.11
2023-06-10T06:15:41.819Z,29.10
2023-06-10T06:20:44.719Z,28.72
2023-06-10T06:25:47.404Z,28.70
2023-06-10T06:30:50.087Z,28.74
2023-06-10T06:35:54.886Z,28.77
2023-06-10T06:40:57.892Z,28.59
2023-06-10T06:46:03.445Z,28.58
2023-06-10T06:51:06.369Z,28.74
2023-06-10T06:56:09.177Z,28.57
2023-06-10T07:01:11.938Z,28.90
2023-06-10T07:06:15.964Z,29.06
2023-06-10T07:11:21.254Z,28.67
2023-06-10T07:16:29.128Z,28.49
2023-06-10T07:21:33.290Z,28.67
2023-06-10T07:26:37.214Z,28.47
2023-06-10T07:31:41.686Z,28.43
2023-06-10T07:36:44.415Z,28.54
2023-06-10T07:41:47.105Z,28.28
2023-06-10T07:46:50.469Z,27.83
2023-06-10T07:51:56.127Z,27.05
2023-06-10T07:56:58.780Z,26.59
2023-06-10T08:02:01.527Z,27.04
2023-06-10T08:07:04.757Z,27.31
2023-06-10T08:12:08.808Z,27.33
2023-06-10T08:17:11.969Z,27.23
2023-06-10T08:22:15.924Z,27.12
2023-06-10T08:27:19.159Z,27.47
2023-06-10T08:32:21.930Z,27.59
2023-06-10T08:37:25.685Z,27.37
2023-06-10T08:42:46.809Z,27.63
2023-06-10T08:47:54.480Z,27.24
2023-06-10T08:53:00.166Z,27.60
2023-06-10T08:58:04.982Z,27.33
2023-06-10T09:03:10.318Z,27.26
2023-06-10T09:08:16.421Z,27.11
2023-06-10T09:13:20.104Z,27.24
2023-06-10T09:18:24.144Z,27.48
2023-06-10T09:23:27.353Z,27.63
2023-06-10T09:28:30.518Z,27.78
2023-06-10T09:33:35.574Z,27.94
2023-06-10T09:38:39.082Z,27.85
2023-06-10T09:43:47.540Z,27.84
2023-06-10T09:48:53.397Z,28.41
2023-06-10T09:54:02.169Z,28.20
2023-06-10T09:59:07.358Z,28.02
2023-06-10T10:04:09.986Z,28.15
2023-06-10T10:09:18.952Z,27.81
2023-06-10T10:14:23.712Z,27.85
2023-06-10T10:19:48.327Z,27.78
2023-06-10T10:24:56.489Z,27.40
2023-06-10T10:30:13.714Z,27.91
2023-06-10T10:35:24.719Z,28.44
2023-06-10T10:40:32.888Z,28.81
2023-06-10T10:45:37.407Z,29.24
2023-06-10T10:50:41.791Z,29.37
2023-06-10T10:56:08.043Z,29.36
2023-06-10T11:01:18.405Z,29.66
2023-06-10T11:06:23.183Z,29.60
2023-06-10T11:11:29.205Z,29.47
2023-06-10T11:16:44.339Z,30.02
2023-06-10T11:22:18.903Z,30.09
2023-06-10T11:27:28.491Z,29.25
2023-06-10T11:32:36.432Z,28.66
2023-06-10T11:37:43.386Z,28.75
2023-06-10T11:42:46.982Z,29.19
2023-06-10T11:48:00.727Z,29.32
2023-06-10T11:53:12.362Z,28.68
2023-06-10T11:58:26.266Z,29.19
2023-06-10T12:03:40.952Z,28.98
2023-06-10T12:08:45.162Z,29.07
2023-06-10T12:13:51.686Z,29.11
2023-06-10T12:19:04.238Z,28.89
2023-06-10T12:24:12.649Z,28.86
2023-06-10T12:29:26.050Z,28.73
2023-06-10T12:34:31.474Z,29.06
2023-06-10T12:39:35.406Z,29.28
2023-06-10T12:44:42.447Z,29.07
2023-06-10T12:49:48.388Z,28.70
2023-06-10T12:54:51.222Z,29.09
2023-06-10T12:59:55.714Z,28.67
2023-06-10T13:04:58.507Z,28.47
2023-06-10T13:10:04.050Z,28.55
2023-06-10T13:15:11.169Z,28.80
2023-06-10T13:20:14.207Z,28.80
2023-06-10T13:25:18.726Z,28.88
2023-06-10T13:30:21.774Z,28.86
2023-06-10T13:35:24.516Z,28.77
2023-06-10T13:40:28.136Z,28.16
2023-06-10T13:45:31.470Z,28.40
2023-06-10T13:50:34.301Z,28.18
2023-06-10T13:55:39.161Z,28.34
2023-06-10T14:00:42.181Z,28.15
2023-06-10T14:05:44.883Z,28.17
2023-06-10T14:10:52.451Z,28.33
2023-06-10T14:15:55.631Z,28.31
2023-06-10T14:21:00.577Z,28.20
2023-06-10T14:26:09.431Z,28.47
2023-06-10T14:31:12.127Z,28.55
2023-06-10T14:36:17.347Z,28.53
2023-06-10T14:41:20.021Z,28.76
2023-06-10T14:46:22.992Z,28.72
2023-06-10T14:51:27.805Z,28.65
2023-06-10T14:56:35.083Z,28.50
2023-06-10T15:01:40.297Z,28.11
2023-06-10T15:06:44.497Z,28.19
2023-06-10T15:11:48.648Z,28.02
2023-06-10T15:16:51.809Z,27.40
2023-06-10T15:21:55.050Z,27.48
2023-06-10T15:26:59.107Z,27.35
2023-06-10T15:32:02.072Z,27.15
2023-06-10T15:37:05.366Z,27.37
2023-06-10T15:42:08.279Z,27.34
2023-06-10T15:47:12.161Z,27.47
2023-06-10T15:52:15.857Z,27.41
2023-06-10T15:57:18.703Z,27.33
2023-06-10T16:02:21.677Z,27.25
2023-06-10T16:07:27.229Z,27.24
2023-06-10T16:12:29.976Z,27.15
2023-06-10T16:17:33.482Z,26.84
2023-06-10T16:22:36.752Z,26.92
2023-06-10T16:27:39.370Z,27.13
2023-06-10T16:32:44.269Z,27.22
2023-06-10T16:37:47.170Z,27.42
2023-06-10T16:42:50.968Z,27.62
2023-06-10T16:47:55.187Z,27.48
2023-06-10T16:53:02.927Z,27.51
2023-06-10T16:58:08.591Z,27.69
2023-06-10T17:03:15.104Z,28.01
2023-06-10T17:08:18.035Z,28.33
2023-06-10T17:13:21.268Z,28.52
2023-06-10T17:18:24.213Z,28.74
2023-06-10T17:23:30.168Z,28.89
2023-06-10T17:28:35.042Z,29.05
2023-06-10T17:33:38.239Z,29.08
2023-06-10T17:38:43.252Z,29.22
2023-06-10T17:43:46.077Z,29.52
2023-06-10T17:48:51.819Z,29.80
2023-06-10T17:53:54.516Z,30.50
2023-06-10T17:58:57.346Z,31.09
2023-06-10T18:04:07.953Z,31.76
2023-06-10T18:09:15.210Z,32.31
2023-06-10T18:14:17.972Z,32.66
2023-06-10T18:19:22.961Z,33.17
2023-06-10T18:24:25.944Z,33.56
2023-06-10T18:29:28.779Z,33.78
2023-06-10T18:34:31.841Z,34.28
2023-06-10T18:39:36.161Z,34.57
2023-06-10T18:44:38.939Z,34.65
2023-06-10T18:49:48.710Z,35.06
2023-06-10T18:54:55.179Z,35.20
2023-06-10T18:59:58.334Z,35.38
2023-06-10T19:05:02.667Z,35.49
2023-06-10T19:10:08.380Z,35.63
2023-06-10T19:15:12.127Z,35.79
2023-06-10T19:20:16.367Z,35.82
2023-06-10T19:25:23.312Z,35.78
2023-06-10T19:30:26.029Z,35.74
2023-06-10T19:35:29.153Z,35.78
2023-06-10T19:40:35.209Z,36.01
2023-06-10T19:45:38.135Z,36.12
2023-06-10T19:50:41.205Z,36.42
2023-06-10T19:55:44.390Z,36.44
2023-06-10T20:00:48.838Z,36.53
2023-06-10T20:05:51.935Z,36.63
2023-06-10T20:10:56.391Z,36.73
2023-06-10T20:16:02.935Z,36.86
2023-06-10T20:21:07.139Z,36.88
2023-06-10T20:26:10.029Z,37.10
2023-06-10T20:31:22.945Z,37.21
2023-06-10T20:36:29.618Z,37.22
2023-06-10T20:41:35.499Z,37.40
2023-06-10T20:46:38.635Z,37.37
2023-06-10T20:51:43.641Z,37.56
2023-06-10T20:56:49.425Z,37.53
2023-06-10T21:01:52.525Z,37.66
2023-06-10T21:06:57.965Z,37.88
2023-06-10T21:12:02.065Z,37.92
2023-06-10T21:17:05.182Z,38.08
2023-06-10T21:22:08.659Z,38.13
2023-06-10T21:27:12.205Z,38.29
2023-06-10T21:32:15.540Z,38.48
2023-06-10T21:37:18.324Z,38.72
2023-06-10T21:42:22.585Z,38.88
2023-06-10T21:47:25.455Z,39.02
2023-06-10T21:52:28.384Z,39.22
2023-06-10T21:57:31.251Z,39.40
2023-06-10T22:02:33.984Z,39.66
2023-06-10T22:07:42.216Z,39.96
2023-06-10T22:12:44.994Z,40.03
2023-06-10T22:17:47.803Z,40.30
2023-06-10T22:22:50.696Z,40.42
2023-06-10T22:27:53.526Z,40.63
2023-06-10T22:32:56.411Z,41.01
2023-06-10T22:37:59.369Z,41.24
2023-06-10T22:43:02.242Z,41.42
2023-06-10T22:48:05.573Z,41.75
2023-06-10T22:53:08.531Z,41.87
2023-06-10T22:58:11.551Z,42.19
2023-06-10T23:03:14.395Z,42.33
2023-06-10T23:08:19.720Z,42.52
2023-06-10T23:13:22.615Z,42.81
2023-06-10T23:18:25.332Z,43.06
2023-06-10T23:23:39.299Z,43.20
2023-06-10T23:28:43.153Z,43.42
2023-06-10T23:33:47.022Z,43.56
2023-06-10T23:38:49.945Z,43.81
2023-06-10T23:43:54.083Z,44.01
2023-06-10T23:48:56.718Z,44.17
2023-06-10T23:54:02.409Z,44.29
2023-06-10T23:59:05.114Z,44.73
